Terminal Aerodrome Forecast
Issued by NWS Tuscon, AZ

Current Version | Previous Version | Text Only | Print | Product List | Glossary On
Versions: 1 2 3 4 5 6 7 8 9 10 11 12 13 14 15 16 17
000
FTUS45 KTWC 311120
TAFTUS
TAF
KTUS 311120Z 3112/0112 14008KT P6SM FEW120 SCT200
     FM311800 VRB03KT P6SM SCT100 SCT200
     FM312300 25008KT P6SM VCSH SCT090 BKN200
     FM010300 20006KT P6SM SCT110 BKN200
     FM010700 15007KT P6SM FEW120 SCT200=

USA.gov is the U.S. government's official web portal to all federal, state and local government web resources and services.